sensor_id;sensor_type;location;lat;lon;timestamp;P1;durP1;ratioP1;P2;durP2;ratioP2
41875;SDS011;27555;50.808;4.402;2023-03-23T00:02:06;6.03;;;3.22;;
41875;SDS011;27555;50.808;4.402;2023-03-23T00:04:32;4.53;;;2.75;;
41875;SDS011;27555;50.808;4.402;2023-03-23T00:06:57;8.60;;;3.38;;
41875;SDS011;27555;50.808;4.402;2023-03-23T00:09:26;5.95;;;2.55;;
41875;SDS011;27555;50.808;4.402;2023-03-23T00:11:51;4.93;;;2.78;;
41875;SDS011;27555;50.808;4.402;2023-03-23T00:14:21;4.78;;;2.45;;
41875;SDS011;27555;50.808;4.402;2023-03-23T00:16:48;9.65;;;2.42;;
41875;SDS011;27555;50.808;4.402;2023-03-23T00:19:15;6.22;;;3.05;;
41875;SDS011;27555;50.808;4.402;2023-03-23T00:21:42;3.65;;;2.58;;
41875;SDS011;27555;50.808;4.402;2023-03-23T00:24:17;6.28;;;2.28;;
41875;SDS011;27555;50.808;4.402;2023-03-23T00:26:45;4.00;;;2.30;;
41875;SDS011;27555;50.808;4.402;2023-03-23T00:31:42;3.83;;;2.10;;
41875;SDS011;27555;50.808;4.402;2023-03-23T00:34:11;3.97;;;2.35;;
41875;SDS011;27555;50.808;4.402;2023-03-23T00:36:43;4.28;;;2.80;;
41875;SDS011;27555;50.808;4.402;2023-03-23T00:39:09;4.15;;;2.20;;
41875;SDS011;27555;50.808;4.402;2023-03-23T00:41:35;6.03;;;2.80;;
41875;SDS011;27555;50.808;4.402;2023-03-23T00:44:01;4.03;;;2.42;;
41875;SDS011;27555;50.808;4.402;2023-03-23T00:46:27;5.03;;;2.33;;
41875;SDS011;27555;50.808;4.402;2023-03-23T00:48:53;3.92;;;2.70;;
41875;SDS011;27555;50.808;4.402;2023-03-23T00:51:19;6.57;;;2.50;;
41875;SDS011;27555;50.808;4.402;2023-03-23T00:53:46;6.88;;;3.50;;
41875;SDS011;27555;50.808;4.402;2023-03-23T00:56:12;8.27;;;2.60;;
41875;SDS011;27555;50.808;4.402;2023-03-23T00:58:38;3.53;;;2.10;;
41875;SDS011;27555;50.808;4.402;2023-03-23T01:01:04;5.32;;;2.75;;
41875;SDS011;27555;50.808;4.402;2023-03-23T01:03:31;4.90;;;2.80;;
41875;SDS011;27555;50.808;4.402;2023-03-23T01:05:56;4.28;;;2.60;;
41875;SDS011;27555;50.808;4.402;2023-03-23T01:08:23;4.85;;;2.63;;
41875;SDS011;27555;50.808;4.402;2023-03-23T01:10:49;9.02;;;2.92;;
41875;SDS011;27555;50.808;4.402;2023-03-23T01:13:15;3.85;;;2.50;;
41875;SDS011;27555;50.808;4.402;2023-03-23T01:15:42;5.40;;;2.78;;
41875;SDS011;27555;50.808;4.402;2023-03-23T01:18:08;4.85;;;3.13;;
41875;SDS011;27555;50.808;4.402;2023-03-23T01:20:35;2.88;;;2.22;;
41875;SDS011;27555;50.808;4.402;2023-03-23T01:23:02;5.50;;;2.45;;
41875;SDS011;27555;50.808;4.402;2023-03-23T01:25:29;5.35;;;2.70;;
41875;SDS011;27555;50.808;4.402;2023-03-23T01:27:57;4.45;;;2.83;;
41875;SDS011;27555;50.808;4.402;2023-03-23T01:30:23;5.13;;;2.53;;
41875;SDS011;27555;50.808;4.402;2023-03-23T01:32:49;9.85;;;2.75;;
41875;SDS011;27555;50.808;4.402;2023-03-23T01:35:15;4.18;;;2.25;;
41875;SDS011;27555;50.808;4.402;2023-03-23T01:37:41;4.57;;;2.30;;
41875;SDS011;27555;50.808;4.402;2023-03-23T01:40:08;3.38;;;2.25;;
41875;SDS011;27555;50.808;4.402;2023-03-23T01:42:35;5.47;;;2.55;;
41875;SDS011;27555;50.808;4.402;2023-03-23T01:47:59;3.80;;;2.55;;
41875;SDS011;27555;50.808;4.402;2023-03-23T01:50:29;3.97;;;2.13;;
41875;SDS011;27555;50.808;4.402;2023-03-23T01:53:17;4.32;;;2.33;;
41875;SDS011;27555;50.808;4.402;2023-03-23T01:55:45;3.45;;;2.17;;
41875;SDS011;27555;50.808;4.402;2023-03-23T01:58:15;4.40;;;2.08;;
41875;SDS011;27555;50.808;4.402;2023-03-23T02:00:45;5.18;;;2.33;;
41875;SDS011;27555;50.808;4.402;2023-03-23T02:03:11;4.05;;;2.22;;
41875;SDS011;27555;50.808;4.402;2023-03-23T02:05:41;6.38;;;1.75;;
41875;SDS011;27555;50.808;4.402;2023-03-23T02:08:08;3.75;;;1.95;;
41875;SDS011;27555;50.808;4.402;2023-03-23T02:10:36;5.28;;;2.22;;
41875;SDS011;27555;50.808;4.402;2023-03-23T02:13:03;8.52;;;2.72;;
41875;SDS011;27555;50.808;4.402;2023-03-23T02:15:36;4.65;;;2.05;;
41875;SDS011;27555;50.808;4.402;2023-03-23T02:18:35;5.30;;;2.33;;
41875;SDS011;27555;50.808;4.402;2023-03-23T02:21:14;4.53;;;2.22;;
41875;SDS011;27555;50.808;4.402;2023-03-23T02:26:47;4.05;;;1.55;;
41875;SDS011;27555;50.808;4.402;2023-03-23T02:34:56;5.22;;;1.90;;
41875;SDS011;27555;50.808;4.402;2023-03-23T02:37:28;5.28;;;1.70;;
41875;SDS011;27555;50.808;4.402;2023-03-23T02:40:06;4.22;;;2.10;;
41875;SDS011;27555;50.808;4.402;2023-03-23T02:42:38;2.08;;;1.25;;
41875;SDS011;27555;50.808;4.402;2023-03-23T02:45:09;2.88;;;1.50;;
41875;SDS011;27555;50.808;4.402;2023-03-23T02:47:37;4.27;;;1.57;;
41875;SDS011;27555;50.808;4.402;2023-03-23T02:50:05;5.03;;;1.83;;
41875;SDS011;27555;50.808;4.402;2023-03-23T02:52:34;4.65;;;1.92;;
41875;SDS011;27555;50.808;4.402;2023-03-23T02:55:02;2.88;;;1.25;;
41875;SDS011;27555;50.808;4.402;2023-03-23T02:57:28;3.30;;;1.27;;
41875;SDS011;27555;50.808;4.402;2023-03-23T02:59:55;2.30;;;1.45;;
41875;SDS011;27555;50.808;4.402;2023-03-23T03:02:27;3.50;;;1.50;;
41875;SDS011;27555;50.808;4.402;2023-03-23T03:05:22;2.10;;;1.38;;
41875;SDS011;27555;50.808;4.402;2023-03-23T03:10:41;2.95;;;1.38;;
41875;SDS011;27555;50.808;4.402;2023-03-23T03:13:42;3.70;;;1.20;;
41875;SDS011;27555;50.808;4.402;2023-03-23T03:16:20;3.60;;;1.15;;
41875;SDS011;27555;50.808;4.402;2023-03-23T03:18:57;5.22;;;1.30;;
41875;SDS011;27555;50.808;4.402;2023-03-23T03:21:33;7.25;;;1.70;;
41875;SDS011;27555;50.808;4.402;2023-03-23T03:24:02;4.65;;;1.20;;
41875;SDS011;27555;50.808;4.402;2023-03-23T03:26:33;5.93;;;1.23;;
41875;SDS011;27555;50.808;4.402;2023-03-23T03:28:59;2.70;;;1.23;;
41875;SDS011;27555;50.808;4.402;2023-03-23T03:31:30;5.72;;;1.38;;
41875;SDS011;27555;50.808;4.402;2023-03-23T03:34:00;1.85;;;1.00;;
41875;SDS011;27555;50.808;4.402;2023-03-23T03:36:30;4.25;;;1.38;;
41875;SDS011;27555;50.808;4.402;2023-03-23T03:39:00;2.55;;;1.30;;
41875;SDS011;27555;50.808;4.402;2023-03-23T03:41:29;3.63;;;1.38;;
41875;SDS011;27555;50.808;4.402;2023-03-23T03:43:55;5.38;;;1.45;;
41875;SDS011;27555;50.808;4.402;2023-03-23T03:46:21;3.72;;;1.50;;
41875;SDS011;27555;50.808;4.402;2023-03-23T03:48:46;9.10;;;1.85;;
41875;SDS011;27555;50.808;4.402;2023-03-23T03:51:12;4.60;;;1.35;;
41875;SDS011;27555;50.808;4.402;2023-03-23T03:53:38;7.13;;;1.88;;
41875;SDS011;27555;50.808;4.402;2023-03-23T03:56:03;4.05;;;1.35;;
41875;SDS011;27555;50.808;4.402;2023-03-23T03:58:30;4.57;;;1.55;;
41875;SDS011;27555;50.808;4.402;2023-03-23T04:00:57;10.57;;;2.42;;
41875;SDS011;27555;50.808;4.402;2023-03-23T04:03:24;5.15;;;1.50;;
41875;SDS011;27555;50.808;4.402;2023-03-23T04:05:51;5.93;;;1.48;;
41875;SDS011;27555;50.808;4.402;2023-03-23T04:08:17;8.10;;;1.92;;
41875;SDS011;27555;50.808;4.402;2023-03-23T04:10:43;9.23;;;1.50;;
41875;SDS011;27555;50.808;4.402;2023-03-23T04:13:09;5.68;;;1.33;;
41875;SDS011;27555;50.808;4.402;2023-03-23T04:15:35;5.85;;;1.30;;
41875;SDS011;27555;50.808;4.402;2023-03-23T04:18:00;8.00;;;1.15;;
41875;SDS011;27555;50.808;4.402;2023-03-23T04:20:26;9.95;;;1.67;;
41875;SDS011;27555;50.808;4.402;2023-03-23T04:22:52;8.23;;;1.50;;
41875;SDS011;27555;50.808;4.402;2023-03-23T04:25:20;7.95;;;2.20;;
41875;SDS011;27555;50.808;4.402;2023-03-23T04:27:46;9.32;;;1.75;;
41875;SDS011;27555;50.808;4.402;2023-03-23T04:30:17;3.83;;;1.13;;
41875;SDS011;27555;50.808;4.402;2023-03-23T04:32:44;7.22;;;1.65;;
41875;SDS011;27555;50.808;4.402;2023-03-23T04:35:11;7.55;;;1.98;;
41875;SDS011;27555;50.808;4.402;2023-03-23T04:37:38;5.05;;;1.40;;
41875;SDS011;27555;50.808;4.402;2023-03-23T04:40:06;13.57;;;2.03;;
41875;SDS011;27555;50.808;4.402;2023-03-23T04:42:36;8.88;;;1.73;;
41875;SDS011;27555;50.808;4.402;2023-03-23T04:45:02;5.43;;;1.13;;
41875;SDS011;27555;50.808;4.402;2023-03-23T04:47:31;5.25;;;1.27;;
41875;SDS011;27555;50.808;4.402;2023-03-23T04:50:04;5.30;;;1.15;;
41875;SDS011;27555;50.808;4.402;2023-03-23T04:52:31;5.60;;;1.10;;
41875;SDS011;27555;50.808;4.402;2023-03-23T04:54:57;6.25;;;1.48;;
41875;SDS011;27555;50.808;4.402;2023-03-23T04:57:23;6.05;;;1.90;;
41875;SDS011;27555;50.808;4.402;2023-03-23T04:59:50;6.10;;;1.38;;
41875;SDS011;27555;50.808;4.402;2023-03-23T05:02:16;9.05;;;1.65;;
41875;SDS011;27555;50.808;4.402;2023-03-23T05:04:42;10.15;;;1.90;;
41875;SDS011;27555;50.808;4.402;2023-03-23T05:07:07;7.90;;;1.42;;
41875;SDS011;27555;50.808;4.402;2023-03-23T05:09:35;6.95;;;1.73;;
41875;SDS011;27555;50.808;4.402;2023-03-23T05:12:04;5.30;;;1.50;;
41875;SDS011;27555;50.808;4.402;2023-03-23T05:16:56;4.55;;;1.10;;
41875;SDS011;27555;50.808;4.402;2023-03-23T05:19:22;9.55;;;1.42;;
41875;SDS011;27555;50.808;4.402;2023-03-23T05:21:47;6.38;;;1.42;;
41875;SDS011;27555;50.808;4.402;2023-03-23T05:24:13;4.95;;;1.15;;
41875;SDS011;27555;50.808;4.402;2023-03-23T05:26:38;4.65;;;1.25;;
41875;SDS011;27555;50.808;4.402;2023-03-23T05:29:04;10.07;;;2.25;;
41875;SDS011;27555;50.808;4.402;2023-03-23T05:31:30;6.10;;;0.95;;
41875;SDS011;27555;50.808;4.402;2023-03-23T05:33:55;5.05;;;1.23;;
41875;SDS011;27555;50.808;4.402;2023-03-23T05:36:21;4.82;;;1.25;;
41875;SDS011;27555;50.808;4.402;2023-03-23T05:38:48;5.40;;;1.10;;
41875;SDS011;27555;50.808;4.402;2023-03-23T05:41:15;4.50;;;1.45;;
41875;SDS011;27555;50.808;4.402;2023-03-23T05:43:41;11.35;;;1.77;;
41875;SDS011;27555;50.808;4.402;2023-03-23T05:46:07;4.57;;;1.58;;
41875;SDS011;27555;50.808;4.402;2023-03-23T05:48:33;4.43;;;1.55;;
41875;SDS011;27555;50.808;4.402;2023-03-23T05:50:59;5.15;;;1.23;;
41875;SDS011;27555;50.808;4.402;2023-03-23T05:53:25;2.60;;;1.00;;
41875;SDS011;27555;50.808;4.402;2023-03-23T05:55:51;6.50;;;1.17;;
41875;SDS011;27555;50.808;4.402;2023-03-23T05:58:18;5.90;;;1.73;;
41875;SDS011;27555;50.808;4.402;2023-03-23T06:00:44;9.85;;;1.55;;
41875;SDS011;27555;50.808;4.402;2023-03-23T06:03:11;6.00;;;1.35;;
41875;SDS011;27555;50.808;4.402;2023-03-23T06:05:41;4.22;;;1.25;;
41875;SDS011;27555;50.808;4.402;2023-03-23T06:08:10;5.75;;;1.60;;
41875;SDS011;27555;50.808;4.402;2023-03-23T06:10:37;4.85;;;1.42;;
41875;SDS011;27555;50.808;4.402;2023-03-23T06:13:03;7.85;;;1.55;;
41875;SDS011;27555;50.808;4.402;2023-03-23T06:15:30;11.90;;;2.13;;
41875;SDS011;27555;50.808;4.402;2023-03-23T06:18:03;7.75;;;1.33;;
41875;SDS011;27555;50.808;4.402;2023-03-23T06:20:30;10.35;;;1.65;;
41875;SDS011;27555;50.808;4.402;2023-03-23T06:22:56;5.00;;;1.60;;
41875;SDS011;27555;50.808;4.402;2023-03-23T06:25:22;9.32;;;1.63;;
41875;SDS011;27555;50.808;4.402;2023-03-23T06:27:48;5.47;;;1.52;;
41875;SDS011;27555;50.808;4.402;2023-03-23T06:30:14;5.50;;;1.27;;
41875;SDS011;27555;50.808;4.402;2023-03-23T06:32:41;11.00;;;2.17;;
41875;SDS011;27555;50.808;4.402;2023-03-23T06:35:08;9.93;;;1.92;;
41875;SDS011;27555;50.808;4.402;2023-03-23T06:37:35;9.10;;;1.92;;
41875;SDS011;27555;50.808;4.402;2023-03-23T06:40:01;4.55;;;1.08;;
41875;SDS011;27555;50.808;4.402;2023-03-23T06:42:35;3.58;;;1.30;;
41875;SDS011;27555;50.808;4.402;2023-03-23T06:45:02;5.70;;;1.65;;
41875;SDS011;27555;50.808;4.402;2023-03-23T06:47:28;8.45;;;1.70;;
41875;SDS011;27555;50.808;4.402;2023-03-23T06:49:57;8.00;;;2.00;;
41875;SDS011;27555;50.808;4.402;2023-03-23T06:52:23;9.15;;;2.00;;
41875;SDS011;27555;50.808;4.402;2023-03-23T06:54:50;7.38;;;1.65;;
41875;SDS011;27555;50.808;4.402;2023-03-23T06:57:17;4.55;;;1.30;;
41875;SDS011;27555;50.808;4.402;2023-03-23T06:59:43;6.60;;;1.85;;
41875;SDS011;27555;50.808;4.402;2023-03-23T07:02:12;5.82;;;1.30;;
41875;SDS011;27555;50.808;4.402;2023-03-23T07:04:39;11.05;;;1.88;;
41875;SDS011;27555;50.808;4.402;2023-03-23T07:07:07;7.82;;;1.58;;
41875;SDS011;27555;50.808;4.402;2023-03-23T07:09:34;6.97;;;1.85;;
41875;SDS011;27555;50.808;4.402;2023-03-23T07:12:00;6.43;;;1.65;;
41875;SDS011;27555;50.808;4.402;2023-03-23T07:14:26;4.55;;;1.33;;
41875;SDS011;27555;50.808;4.402;2023-03-23T07:16:51;10.23;;;2.00;;
41875;SDS011;27555;50.808;4.402;2023-03-23T07:19:18;6.50;;;1.33;;
41875;SDS011;27555;50.808;4.402;2023-03-23T07:21:44;7.15;;;2.17;;
41875;SDS011;27555;50.808;4.402;2023-03-23T07:24:10;7.28;;;1.73;;
41875;SDS011;27555;50.808;4.402;2023-03-23T07:26:39;7.35;;;1.60;;
41875;SDS011;27555;50.808;4.402;2023-03-23T07:29:06;10.20;;;2.25;;
41875;SDS011;27555;50.808;4.402;2023-03-23T07:31:32;2.33;;;1.10;;
41875;SDS011;27555;50.808;4.402;2023-03-23T07:33:57;3.65;;;1.08;;
41875;SDS011;27555;50.808;4.402;2023-03-23T07:36:23;4.38;;;1.65;;
41875;SDS011;27555;50.808;4.402;2023-03-23T07:38:49;6.75;;;1.40;;
41875;SDS011;27555;50.808;4.402;2023-03-23T07:41:15;8.82;;;1.65;;
41875;SDS011;27555;50.808;4.402;2023-03-23T07:43:40;6.68;;;1.17;;
41875;SDS011;27555;50.808;4.402;2023-03-23T07:46:06;6.68;;;2.17;;
41875;SDS011;27555;50.808;4.402;2023-03-23T07:48:32;6.05;;;1.58;;
41875;SDS011;27555;50.808;4.402;2023-03-23T07:50:58;6.88;;;2.08;;
41875;SDS011;27555;50.808;4.402;2023-03-23T07:53:24;4.82;;;1.40;;
41875;SDS011;27555;50.808;4.402;2023-03-23T07:55:50;9.45;;;1.95;;
41875;SDS011;27555;50.808;4.402;2023-03-23T07:58:16;7.75;;;1.25;;
41875;SDS011;27555;50.808;4.402;2023-03-23T08:00:44;5.72;;;1.13;;
41875;SDS011;27555;50.808;4.402;2023-03-23T08:03:13;3.35;;;0.82;;
41875;SDS011;27555;50.808;4.402;2023-03-23T08:05:40;3.63;;;0.82;;
41875;SDS011;27555;50.808;4.402;2023-03-23T08:08:07;3.50;;;1.02;;
41875;SDS011;27555;50.808;4.402;2023-03-23T08:10:34;4.40;;;1.35;;
41875;SDS011;27555;50.808;4.402;2023-03-23T08:13:00;5.10;;;1.25;;
41875;SDS011;27555;50.808;4.402;2023-03-23T08:15:26;1.95;;;0.93;;
41875;SDS011;27555;50.808;4.402;2023-03-23T08:17:53;2.53;;;1.17;;
41875;SDS011;27555;50.808;4.402;2023-03-23T08:20:19;2.40;;;0.70;;
41875;SDS011;27555;50.808;4.402;2023-03-23T08:22:51;3.65;;;0.90;;
41875;SDS011;27555;50.808;4.402;2023-03-23T08:25:18;5.20;;;1.02;;
41875;SDS011;27555;50.808;4.402;2023-03-23T08:27:44;2.95;;;0.90;;
41875;SDS011;27555;50.808;4.402;2023-03-23T08:30:14;3.67;;;0.50;;
41875;SDS011;27555;50.808;4.402;2023-03-23T08:32:42;2.95;;;0.55;;
41875;SDS011;27555;50.808;4.402;2023-03-23T08:35:08;3.55;;;1.05;;
41875;SDS011;27555;50.808;4.402;2023-03-23T08:37:35;5.90;;;1.05;;
41875;SDS011;27555;50.808;4.402;2023-03-23T08:40:02;2.67;;;0.85;;
41875;SDS011;27555;50.808;4.402;2023-03-23T08:42:38;3.95;;;1.17;;
41875;SDS011;27555;50.808;4.402;2023-03-23T08:45:06;4.88;;;1.20;;
41875;SDS011;27555;50.808;4.402;2023-03-23T08:47:33;3.70;;;0.98;;
41875;SDS011;27555;50.808;4.402;2023-03-23T08:50:00;3.58;;;1.20;;
41875;SDS011;27555;50.808;4.402;2023-03-23T08:52:26;7.03;;;1.67;;
41875;SDS011;27555;50.808;4.402;2023-03-23T08:54:53;2.83;;;0.70;;
41875;SDS011;27555;50.808;4.402;2023-03-23T08:57:19;4.68;;;1.00;;
41875;SDS011;27555;50.808;4.402;2023-03-23T08:59:44;8.50;;;1.40;;
41875;SDS011;27555;50.808;4.402;2023-03-23T09:02:10;3.25;;;1.00;;
41875;SDS011;27555;50.808;4.402;2023-03-23T09:04:39;8.20;;;1.50;;
41875;SDS011;27555;50.808;4.402;2023-03-23T09:07:12;2.90;;;0.80;;
41875;SDS011;27555;50.808;4.402;2023-03-23T09:09:39;3.30;;;1.00;;
41875;SDS011;27555;50.808;4.402;2023-03-23T09:12:06;3.50;;;0.90;;
41875;SDS011;27555;50.808;4.402;2023-03-23T09:14:33;5.78;;;1.08;;
41875;SDS011;27555;50.808;4.402;2023-03-23T09:16:59;3.20;;;0.93;;
41875;SDS011;27555;50.808;4.402;2023-03-23T09:19:25;2.38;;;0.80;;
41875;SDS011;27555;50.808;4.402;2023-03-23T09:21:51;3.28;;;0.70;;
41875;SDS011;27555;50.808;4.402;2023-03-23T09:24:17;3.72;;;1.00;;
41875;SDS011;27555;50.808;4.402;2023-03-23T09:26:43;1.15;;;0.88;;
41875;SDS011;27555;50.808;4.402;2023-03-23T09:29:10;7.15;;;1.77;;
41875;SDS011;27555;50.808;4.402;2023-03-23T09:31:36;6.10;;;0.98;;
41875;SDS011;27555;50.808;4.402;2023-03-23T09:34:02;3.92;;;1.10;;
41875;SDS011;27555;50.808;4.402;2023-03-23T09:36:29;2.88;;;1.33;;
41875;SDS011;27555;50.808;4.402;2023-03-23T09:38:55;3.85;;;0.70;;
41875;SDS011;27555;50.808;4.402;2023-03-23T09:41:36;5.68;;;1.30;;
41875;SDS011;27555;50.808;4.402;2023-03-23T09:44:40;1.38;;;0.70;;
41875;SDS011;27555;50.808;4.402;2023-03-23T09:49:59;5.70;;;0.82;;
41875;SDS011;27555;50.808;4.402;2023-03-23T09:55:36;4.03;;;1.17;;
41875;SDS011;27555;50.808;4.402;2023-03-23T09:58:22;2.33;;;1.15;;
41875;SDS011;27555;50.808;4.402;2023-03-23T10:03:37;2.10;;;0.93;;
41875;SDS011;27555;50.808;4.402;2023-03-23T10:06:07;2.65;;;1.20;;
41875;SDS011;27555;50.808;4.402;2023-03-23T10:08:35;4.25;;;1.23;;
41875;SDS011;27555;50.808;4.402;2023-03-23T10:14:22;3.92;;;1.20;;
41875;SDS011;27555;50.808;4.402;2023-03-23T10:17:19;3.20;;;1.00;;
41875;SDS011;27555;50.808;4.402;2023-03-23T10:22:31;2.85;;;1.02;;
41875;SDS011;27555;50.808;4.402;2023-03-23T10:30:27;4.30;;;1.40;;
41875;SDS011;27555;50.808;4.402;2023-03-23T10:33:08;4.75;;;1.45;;
41875;SDS011;27555;50.808;4.402;2023-03-23T10:35:47;5.65;;;1.67;;
41875;SDS011;27555;50.808;4.402;2023-03-23T10:38:25;5.43;;;2.28;;
41875;SDS011;27555;50.808;4.402;2023-03-23T10:41:04;7.55;;;1.58;;
41875;SDS011;27555;50.808;4.402;2023-03-23T10:43:37;6.57;;;1.27;;
41875;SDS011;27555;50.808;4.402;2023-03-23T10:49:12;3.55;;;1.85;;
41875;SDS011;27555;50.808;4.402;2023-03-23T10:51:47;5.28;;;1.50;;
41875;SDS011;27555;50.808;4.402;2023-03-23T10:54:36;7.88;;;2.30;;
41875;SDS011;27555;50.808;4.402;2023-03-23T11:02:31;4.70;;;1.80;;
41875;SDS011;27555;50.808;4.402;2023-03-23T11:05:04;5.80;;;1.83;;
41875;SDS011;27555;50.808;4.402;2023-03-23T11:07:40;6.43;;;1.60;;
41875;SDS011;27555;50.808;4.402;2023-03-23T11:10:16;7.90;;;2.00;;
41875;SDS011;27555;50.808;4.402;2023-03-23T11:12:47;7.80;;;1.35;;
41875;SDS011;27555;50.808;4.402;2023-03-23T11:15:32;8.20;;;1.60;;
41875;SDS011;27555;50.808;4.402;2023-03-23T11:18:02;9.77;;;1.95;;
41875;SDS011;27555;50.808;4.402;2023-03-23T11:20:34;8.70;;;2.08;;
41875;SDS011;27555;50.808;4.402;2023-03-23T11:23:07;8.13;;;2.13;;
41875;SDS011;27555;50.808;4.402;2023-03-23T11:26:20;9.00;;;1.85;;
41875;SDS011;27555;50.808;4.402;2023-03-23T11:28:51;10.27;;;2.05;;
41875;SDS011;27555;50.808;4.402;2023-03-23T11:31:21;8.68;;;1.92;;
41875;SDS011;27555;50.808;4.402;2023-03-23T11:33:56;5.88;;;1.52;;
41875;SDS011;27555;50.808;4.402;2023-03-23T11:36:35;5.95;;;1.70;;
41875;SDS011;27555;50.808;4.402;2023-03-23T11:39:16;9.85;;;2.03;;
41875;SDS011;27555;50.808;4.402;2023-03-23T11:41:57;3.88;;;1.50;;
41875;SDS011;27555;50.808;4.402;2023-03-23T11:44:31;7.88;;;1.98;;
41875;SDS011;27555;50.808;4.402;2023-03-23T11:47:02;5.47;;;1.52;;
41875;SDS011;27555;50.808;4.402;2023-03-23T11:52:23;9.77;;;2.38;;
41875;SDS011;27555;50.808;4.402;2023-03-23T11:55:14;4.70;;;1.52;;
41875;SDS011;27555;50.808;4.402;2023-03-23T11:57:44;7.38;;;1.60;;
41875;SDS011;27555;50.808;4.402;2023-03-23T12:00:14;9.25;;;1.88;;
41875;SDS011;27555;50.808;4.402;2023-03-23T12:02:49;6.95;;;1.90;;
41875;SDS011;27555;50.808;4.402;2023-03-23T12:10:46;6.15;;;1.80;;
41875;SDS011;27555;50.808;4.402;2023-03-23T12:13:39;7.15;;;1.50;;
41875;SDS011;27555;50.808;4.402;2023-03-23T12:16:30;4.50;;;1.63;;
41875;SDS011;27555;50.808;4.402;2023-03-23T12:24:57;5.30;;;1.42;;
41875;SDS011;27555;50.808;4.402;2023-03-23T12:35:36;10.68;;;2.33;;
41875;SDS011;27555;50.808;4.402;2023-03-23T12:41:03;9.52;;;1.73;;
41875;SDS011;27555;50.808;4.402;2023-03-23T12:51:59;12.45;;;2.25;;
41875;SDS011;27555;50.808;4.402;2023-03-23T12:54:38;8.88;;;1.77;;
41875;SDS011;27555;50.808;4.402;2023-03-23T12:57:12;7.90;;;1.80;;
41875;SDS011;27555;50.808;4.402;2023-03-23T13:04:47;6.43;;;2.10;;
41875;SDS011;27555;50.808;4.402;2023-03-23T13:07:26;6.28;;;1.85;;
41875;SDS011;27555;50.808;4.402;2023-03-23T13:10:02;9.90;;;1.90;;
41875;SDS011;27555;50.808;4.402;2023-03-23T13:12:34;8.80;;;1.88;;
41875;SDS011;27555;50.808;4.402;2023-03-23T13:15:19;8.73;;;2.33;;
41875;SDS011;27555;50.808;4.402;2023-03-23T13:21:16;11.25;;;2.28;;
41875;SDS011;27555;50.808;4.402;2023-03-23T13:24:24;8.00;;;1.67;;
41875;SDS011;27555;50.808;4.402;2023-03-23T13:26:52;10.30;;;2.00;;
41875;SDS011;27555;50.808;4.402;2023-03-23T13:31:52;5.82;;;1.50;;
41875;SDS011;27555;50.808;4.402;2023-03-23T13:34:36;8.13;;;1.63;;
41875;SDS011;27555;50.808;4.402;2023-03-23T13:37:05;6.10;;;1.63;;
41875;SDS011;27555;50.808;4.402;2023-03-23T13:49:59;11.02;;;2.20;;
41875;SDS011;27555;50.808;4.402;2023-03-23T13:57:52;5.35;;;2.25;;
41875;SDS011;27555;50.808;4.402;2023-03-23T14:05:48;10.75;;;2.00;;
41875;SDS011;27555;50.808;4.402;2023-03-23T14:16:17;11.15;;;2.80;;
41875;SDS011;27555;50.808;4.402;2023-03-23T14:18:53;9.93;;;2.05;;
41875;SDS011;27555;50.808;4.402;2023-03-23T14:21:26;13.95;;;2.55;;
41875;SDS011;27555;50.808;4.402;2023-03-23T14:24:11;9.27;;;2.05;;
41875;SDS011;27555;50.808;4.402;2023-03-23T14:26:40;10.63;;;1.70;;
41875;SDS011;27555;50.808;4.402;2023-03-23T14:29:08;11.13;;;2.08;;
41875;SDS011;27555;50.808;4.402;2023-03-23T14:31:36;11.88;;;2.42;;
41875;SDS011;27555;50.808;4.402;2023-03-23T14:34:03;14.73;;;2.80;;
41875;SDS011;27555;50.808;4.402;2023-03-23T14:36:36;15.75;;;3.08;;
41875;SDS011;27555;50.808;4.402;2023-03-23T14:39:14;14.43;;;2.50;;
41875;SDS011;27555;50.808;4.402;2023-03-23T14:41:46;8.13;;;2.25;;
41875;SDS011;27555;50.808;4.402;2023-03-23T14:44:17;10.27;;;2.08;;
41875;SDS011;27555;50.808;4.402;2023-03-23T14:46:47;10.02;;;2.35;;
41875;SDS011;27555;50.808;4.402;2023-03-23T14:49:15;16.20;;;2.50;;
41875;SDS011;27555;50.808;4.402;2023-03-23T14:51:48;7.90;;;1.83;;
41875;SDS011;27555;50.808;4.402;2023-03-23T14:54:26;7.95;;;2.45;;
41875;SDS011;27555;50.808;4.402;2023-03-23T14:56:54;9.80;;;2.28;;
41875;SDS011;27555;50.808;4.402;2023-03-23T14:59:21;9.90;;;2.05;;
41875;SDS011;27555;50.808;4.402;2023-03-23T15:01:47;11.27;;;2.90;;
41875;SDS011;27555;50.808;4.402;2023-03-23T15:04:19;12.70;;;2.83;;
41875;SDS011;27555;50.808;4.402;2023-03-23T15:06:55;10.20;;;2.05;;
41875;SDS011;27555;50.808;4.402;2023-03-23T15:09:25;9.07;;;2.40;;
41875;SDS011;27555;50.808;4.402;2023-03-23T15:11:59;9.48;;;2.53;;
41875;SDS011;27555;50.808;4.402;2023-03-23T15:14:32;8.90;;;2.05;;
41875;SDS011;27555;50.808;4.402;2023-03-23T15:17:09;6.80;;;1.65;;
41875;SDS011;27555;50.808;4.402;2023-03-23T15:19:43;8.30;;;2.28;;
41875;SDS011;27555;50.808;4.402;2023-03-23T15:24:43;12.20;;;2.40;;
41875;SDS011;27555;50.808;4.402;2023-03-23T15:27:14;8.68;;;2.08;;
41875;SDS011;27555;50.808;4.402;2023-03-23T15:32:27;15.63;;;7.05;;
41875;SDS011;27555;50.808;4.402;2023-03-23T15:35:09;8.95;;;2.63;;
41875;SDS011;27555;50.808;4.402;2023-03-23T15:37:42;12.70;;;2.30;;
41875;SDS011;27555;50.808;4.402;2023-03-23T15:42:39;8.88;;;2.15;;
41875;SDS011;27555;50.808;4.402;2023-03-23T15:45:26;10.52;;;2.58;;
41875;SDS011;27555;50.808;4.402;2023-03-23T15:47:52;10.18;;;2.45;;
41875;SDS011;27555;50.808;4.402;2023-03-23T15:50:19;13.32;;;3.03;;
41875;SDS011;27555;50.808;4.402;2023-03-23T15:52:51;5.88;;;2.42;;
41875;SDS011;27555;50.808;4.402;2023-03-23T15:57:49;11.40;;;2.65;;
41875;SDS011;27555;50.808;4.402;2023-03-23T16:00:16;13.75;;;2.95;;
41875;SDS011;27555;50.808;4.402;2023-03-23T16:02:44;11.35;;;2.35;;
41875;SDS011;27555;50.808;4.402;2023-03-23T16:05:11;4.72;;;1.80;;
41875;SDS011;27555;50.808;4.402;2023-03-23T16:07:37;12.05;;;2.58;;
41875;SDS011;27555;50.808;4.402;2023-03-23T16:10:04;9.93;;;3.05;;
41875;SDS011;27555;50.808;4.402;2023-03-23T16:12:30;13.02;;;2.55;;
41875;SDS011;27555;50.808;4.402;2023-03-23T16:14:56;6.45;;;2.00;;
41875;SDS011;27555;50.808;4.402;2023-03-23T16:17:22;6.63;;;2.05;;
41875;SDS011;27555;50.808;4.402;2023-03-23T16:19:48;10.38;;;1.88;;
41875;SDS011;27555;50.808;4.402;2023-03-23T16:22:13;6.78;;;1.88;;
41875;SDS011;27555;50.808;4.402;2023-03-23T16:24:39;7.68;;;2.28;;
41875;SDS011;27555;50.808;4.402;2023-03-23T16:27:05;12.18;;;2.80;;
41875;SDS011;27555;50.808;4.402;2023-03-23T16:29:30;11.70;;;2.25;;
41875;SDS011;27555;50.808;4.402;2023-03-23T16:31:56;12.73;;;2.28;;
41875;SDS011;27555;50.808;4.402;2023-03-23T16:34:22;11.70;;;2.20;;
41875;SDS011;27555;50.808;4.402;2023-03-23T16:36:47;17.00;;;2.55;;
41875;SDS011;27555;50.808;4.402;2023-03-23T16:39:13;6.80;;;1.45;;
41875;SDS011;27555;50.808;4.402;2023-03-23T16:41:42;12.43;;;1.80;;
41875;SDS011;27555;50.808;4.402;2023-03-23T16:44:08;12.85;;;2.40;;
41875;SDS011;27555;50.808;4.402;2023-03-23T16:46:34;7.38;;;1.98;;
41875;SDS011;27555;50.808;4.402;2023-03-23T16:49:00;11.23;;;2.50;;
41875;SDS011;27555;50.808;4.402;2023-03-23T16:51:25;12.68;;;2.33;;
41875;SDS011;27555;50.808;4.402;2023-03-23T16:53:51;9.90;;;2.53;;
41875;SDS011;27555;50.808;4.402;2023-03-23T16:56:17;5.78;;;1.58;;
41875;SDS011;27555;50.808;4.402;2023-03-23T16:58:42;11.38;;;1.65;;
41875;SDS011;27555;50.808;4.402;2023-03-23T17:01:08;7.30;;;2.20;;
41875;SDS011;27555;50.808;4.402;2023-03-23T17:03:34;7.45;;;2.08;;
41875;SDS011;27555;50.808;4.402;2023-03-23T17:06:00;6.53;;;2.00;;
41875;SDS011;27555;50.808;4.402;2023-03-23T17:08:26;10.40;;;1.85;;
41875;SDS011;27555;50.808;4.402;2023-03-23T17:10:52;13.45;;;2.65;;
41875;SDS011;27555;50.808;4.402;2023-03-23T17:13:18;10.50;;;2.00;;